Carlotta, California
Current Conditions -  °F | °C
As of 10:30 PM on Wednesday 22 Oct 2014 (Local Time) from KFOT Reporting Station
Overcast Overcast  
Wind Chill: 59°   Ceiling: 3400
Heat Index: 59°   Visibility: 8mi
Dew Point: 57°   Wind: 14mph
Humidity: 94%   Direction: 120°ESE
Pressure: 29.97"   Gusts: 21mph
Location:  40.54°N, 124.06°W
Report Text: KFOT 230530Z AUTO 12012G18KT 8SM BKN034 OVC041 15/14 A2997 RMK AO1 P0001
Loading
Personal Weather Stations






























Interactive Weather Map New forecast layout! Learn more

10-Day Weather Forecast

Advertisements
Track Severe Weather on mobile